createdAt,value
2022-08-19T00:02:00.410Z,65.20
2022-08-19T00:04:31.755Z,64.99
2022-08-19T00:07:00.580Z,65.36
2022-08-19T00:09:31.737Z,65.44
2022-08-19T00:12:01.540Z,65.86
2022-08-19T00:14:31.694Z,65.98
2022-08-19T00:17:00.057Z,66.22
2022-08-19T00:19:28.620Z,66.65
2022-08-19T00:21:56.726Z,66.69
2022-08-19T00:24:25.962Z,66.63
2022-08-19T00:26:55.430Z,66.81
2022-08-19T00:29:25.556Z,66.61
2022-08-19T00:31:55.252Z,66.68
2022-08-19T00:34:24.885Z,66.93
2022-08-19T00:36:53.103Z,67.28
2022-08-19T00:39:23.204Z,67.55
2022-08-19T00:41:51.999Z,67.67
2022-08-19T00:44:26.721Z,67.83
2022-08-19T00:46:59.283Z,67.96
2022-08-19T00:49:31.465Z,68.31
2022-08-19T00:52:08.899Z,68.21
2022-08-19T00:54:39.733Z,68.32
2022-08-19T00:57:13.360Z,68.19
2022-08-19T00:59:56.168Z,68.18
2022-08-19T01:02:31.930Z,67.96
2022-08-19T01:05:01.259Z,68.00
2022-08-19T01:07:37.515Z,68.16
2022-08-19T01:10:11.494Z,68.25
2022-08-19T01:12:40.521Z,68.70
2022-08-19T01:15:12.821Z,69.14
2022-08-19T01:17:42.392Z,69.12
2022-08-19T01:20:13.865Z,69.27
2022-08-19T01:22:45.674Z,69.45
2022-08-19T01:25:16.334Z,69.52
2022-08-19T01:27:47.758Z,69.66
2022-08-19T01:30:21.885Z,69.73
2022-08-19T01:32:50.722Z,69.52
2022-08-19T01:35:19.956Z,69.44
2022-08-19T01:37:51.450Z,69.44
2022-08-19T01:40:22.884Z,69.55
2022-08-19T01:42:52.181Z,69.93
2022-08-19T01:45:22.740Z,70.11
2022-08-19T01:48:01.070Z,70.27
2022-08-19T01:50:31.604Z,70.43
2022-08-19T01:53:02.338Z,70.72
2022-08-19T01:55:40.502Z,70.88
2022-08-19T01:58:13.284Z,71.08
2022-08-19T02:00:44.031Z,71.43
2022-08-19T02:03:12.365Z,71.65
2022-08-19T02:05:41.648Z,71.77
2022-08-19T02:08:11.440Z,71.73
2022-08-19T02:10:41.951Z,72.03
2022-08-19T02:13:10.679Z,72.09
2022-08-19T02:15:38.901Z,72.42
2022-08-19T02:18:11.416Z,72.53
2022-08-19T02:20:41.415Z,72.68
2022-08-19T02:23:13.529Z,72.75
2022-08-19T02:25:45.469Z,72.84
2022-08-19T02:28:18.319Z,73.04
2022-08-19T02:30:48.421Z,73.04
2022-08-19T02:33:18.624Z,73.12
2022-08-19T02:35:47.546Z,72.96
2022-08-19T02:38:28.581Z,73.11
2022-08-19T02:40:57.390Z,73.10
2022-08-19T02:43:26.364Z,73.30
2022-08-19T02:45:54.614Z,73.76
2022-08-19T02:48:24.589Z,73.72
2022-08-19T02:50:55.430Z,73.77
2022-08-19T02:53:26.470Z,73.95
2022-08-19T02:55:53.785Z,73.86
2022-08-19T02:58:23.549Z,73.94
2022-08-19T03:00:55.774Z,73.98
2022-08-19T03:03:24.069Z,74.25
2022-08-19T03:05:56.920Z,74.33
2022-08-19T03:08:26.048Z,74.25
2022-08-19T03:10:54.948Z,74.43
2022-08-19T03:13:24.347Z,74.52
2022-08-19T03:15:52.458Z,74.38
2022-08-19T03:18:21.200Z,74.46
2022-08-19T03:20:54.759Z,74.52
2022-08-19T03:23:24.235Z,74.52
2022-08-19T03:25:58.382Z,74.63
2022-08-19T03:28:43.121Z,74.67
2022-08-19T03:31:45.252Z,74.50
2022-08-19T03:34:11.953Z,74.48
2022-08-19T03:36:40.292Z,74.43
2022-08-19T03:39:09.147Z,74.65
2022-08-19T03:41:45.319Z,74.54
2022-08-19T03:44:17.917Z,74.77
2022-08-19T03:46:48.606Z,74.86
2022-08-19T03:49:18.473Z,74.94
2022-08-19T03:51:48.206Z,75.09
2022-08-19T03:54:19.924Z,75.40
2022-08-19T03:56:49.980Z,75.49
2022-08-19T03:59:22.612Z,75.06
2022-08-19T04:01:50.752Z,75.14
2022-08-19T04:04:20.000Z,74.91
2022-08-19T04:06:48.424Z,75.09
2022-08-19T04:09:16.966Z,75.10
2022-08-19T04:11:48.083Z,75.09
2022-08-19T04:14:16.842Z,74.85
2022-08-19T04:16:46.630Z,75.05
2022-08-19T04:19:16.782Z,74.68
2022-08-19T04:21:48.112Z,74.21
2022-08-19T04:24:17.929Z,73.97
2022-08-19T04:26:46.868Z,73.86
2022-08-19T04:29:17.559Z,73.60
2022-08-19T04:31:46.809Z,73.50
2022-08-19T04:34:16.801Z,73.45
2022-08-19T04:36:45.823Z,73.45
2022-08-19T04:39:16.254Z,73.83
2022-08-19T04:42:03.549Z,74.07
2022-08-19T04:44:33.186Z,73.87
2022-08-19T04:47:03.765Z,73.60
2022-08-19T04:49:39.635Z,72.76
2022-08-19T04:52:09.091Z,72.31
2022-08-19T04:54:39.261Z,71.97
2022-08-19T04:57:09.965Z,70.97
2022-08-19T04:59:39.661Z,70.08
2022-08-19T05:02:11.114Z,69.32
2022-08-19T05:04:39.631Z,68.60
2022-08-19T05:07:08.756Z,67.82
2022-08-19T05:09:58.036Z,67.15
2022-08-19T05:12:29.278Z,66.20
2022-08-19T05:14:58.535Z,65.12
2022-08-19T05:17:29.635Z,64.29
2022-08-19T05:20:17.427Z,63.35
2022-08-19T05:22:47.555Z,63.17
2022-08-19T05:25:20.679Z,62.34
2022-08-19T05:27:49.405Z,60.76
2022-08-19T05:30:18.477Z,58.72
2022-08-19T05:32:46.852Z,57.94
2022-08-19T05:35:14.920Z,57.29
2022-08-19T05:37:43.071Z,56.20
2022-08-19T05:40:12.561Z,55.10
2022-08-19T05:42:40.964Z,54.31
2022-08-19T05:45:11.535Z,52.81
2022-08-19T05:47:42.314Z,51.61
2022-08-19T05:50:10.844Z,50.33
2022-08-19T05:52:39.225Z,49.71
2022-08-19T05:55:12.181Z,48.43
2022-08-19T05:57:40.732Z,47.37
2022-08-19T06:00:11.939Z,46.68
2022-08-19T06:02:40.488Z,46.27
2022-08-19T06:05:11.008Z,46.63
2022-08-19T06:07:40.076Z,45.77
2022-08-19T06:10:11.315Z,45.59
2022-08-19T06:12:39.842Z,45.54
2022-08-19T06:15:12.014Z,45.83
2022-08-19T06:17:42.021Z,45.72
2022-08-19T06:20:14.458Z,45.46
2022-08-19T06:22:45.248Z,45.44
2022-08-19T06:25:15.411Z,44.79
2022-08-19T06:28:14.601Z,43.95
2022-08-19T06:30:31.448Z,44.12
2022-08-19T06:32:59.536Z,43.54
2022-08-19T06:35:29.780Z,43.03
2022-08-19T06:37:58.010Z,42.21
2022-08-19T06:40:27.765Z,41.45
2022-08-19T06:42:56.835Z,41.21
2022-08-19T06:45:34.806Z,41.02
2022-08-19T06:48:04.548Z,41.19
2022-08-19T06:50:34.711Z,40.52
2022-08-19T06:53:06.134Z,39.16
2022-08-19T06:55:34.219Z,39.17
2022-08-19T06:58:05.116Z,39.00
2022-08-19T07:00:34.101Z,38.95
2022-08-19T07:03:04.807Z,37.89
2022-08-19T07:05:45.814Z,38.04
2022-08-19T07:08:14.776Z,36.88
2022-08-19T07:10:45.767Z,36.80
2022-08-19T07:13:14.296Z,36.86
2022-08-19T07:15:42.760Z,37.04
2022-08-19T07:18:11.912Z,36.58
2022-08-19T07:20:41.978Z,36.11
2022-08-19T07:23:10.560Z,36.00
2022-08-19T07:25:44.500Z,36.21
2022-08-19T07:28:14.352Z,36.27
2022-08-19T07:30:51.948Z,36.44
2022-08-19T07:33:21.337Z,36.23
2022-08-19T07:35:50.133Z,35.80
2022-08-19T07:38:18.597Z,35.63
2022-08-19T07:40:47.236Z,35.94
2022-08-19T07:43:17.902Z,35.70
2022-08-19T07:45:47.440Z,36.26
2022-08-19T07:48:15.748Z,36.53
2022-08-19T07:50:44.359Z,36.65
2022-08-19T07:53:12.588Z,36.99
2022-08-19T07:55:43.773Z,36.03
2022-08-19T07:58:14.686Z,36.26
2022-08-19T08:00:43.714Z,36.53
2022-08-19T08:03:13.267Z,36.79
2022-08-19T08:06:05.110Z,37.44
2022-08-19T08:08:51.767Z,38.41
2022-08-19T08:11:21.714Z,38.76
2022-08-19T08:14:01.398Z,38.50
2022-08-19T08:16:46.755Z,38.85
2022-08-19T08:19:22.948Z,39.46
2022-08-19T08:21:55.007Z,40.70
2022-08-19T08:24:28.489Z,41.39
2022-08-19T08:26:59.106Z,40.71
2022-08-19T08:29:35.047Z,40.23
2022-08-19T08:32:04.184Z,40.51
2022-08-19T08:34:42.784Z,39.58
2022-08-19T08:37:13.193Z,39.46
2022-08-19T08:39:44.474Z,39.76
2022-08-19T08:42:21.853Z,40.05
2022-08-19T08:47:29.216Z,39.87
2022-08-19T08:50:02.104Z,39.83
2022-08-19T08:52:35.524Z,39.83
2022-08-19T08:55:10.693Z,39.45
2022-08-19T08:57:50.955Z,39.41
2022-08-19T09:00:25.644Z,39.97
2022-08-19T09:02:54.266Z,40.05
2022-08-19T09:05:27.352Z,38.92
2022-08-19T09:08:16.801Z,39.57
2022-08-19T09:10:55.369Z,39.89
2022-08-19T09:13:32.240Z,39.89
2022-08-19T09:16:09.669Z,39.00
2022-08-19T09:18:44.259Z,38.30
2022-08-19T09:21:13.391Z,38.36
2022-08-19T09:23:42.160Z,38.35
2022-08-19T09:26:13.821Z,38.19
2022-08-19T09:28:48.754Z,38.31
2022-08-19T09:31:19.238Z,37.79
2022-08-19T09:33:46.786Z,37.38
2022-08-19T09:36:21.737Z,36.91
2022-08-19T09:39:03.319Z,36.42
2022-08-19T09:41:31.939Z,35.92
2022-08-19T09:44:02.729Z,35.22
2022-08-19T09:46:31.231Z,35.61
2022-08-19T09:49:06.316Z,35.73
2022-08-19T09:51:35.231Z,35.93
2022-08-19T09:54:06.631Z,35.70
2022-08-19T09:56:37.118Z,36.17
2022-08-19T09:59:05.296Z,37.24
2022-08-19T10:01:33.734Z,36.41
2022-08-19T10:04:06.390Z,36.75
2022-08-19T10:06:39.974Z,37.01
2022-08-19T10:09:17.172Z,36.88
2022-08-19T10:11:55.206Z,36.46
2022-08-19T10:14:23.780Z,36.62
2022-08-19T10:16:51.864Z,36.20
2022-08-19T10:19:25.790Z,36.76
2022-08-19T10:22:00.291Z,37.03
2022-08-19T10:24:29.362Z,36.91
2022-08-19T10:26:59.742Z,36.46
2022-08-19T10:29:32.832Z,36.50
2022-08-19T10:32:03.389Z,36.90
2022-08-19T10:34:32.328Z,36.56
2022-08-19T10:37:01.910Z,35.98
2022-08-19T10:39:30.997Z,36.06
2022-08-19T10:41:59.851Z,35.75
2022-08-19T10:44:31.981Z,36.17
2022-08-19T10:47:00.828Z,36.32
2022-08-19T10:49:29.150Z,36.39
2022-08-19T10:52:20.211Z,35.95
2022-08-19T10:55:08.445Z,35.35
2022-08-19T11:00:27.159Z,35.64
2022-08-19T11:02:54.448Z,35.77
2022-08-19T11:05:24.263Z,36.13
2022-08-19T11:07:53.370Z,35.17
2022-08-19T11:10:22.509Z,35.17
2022-08-19T11:12:54.424Z,34.22
2022-08-19T11:15:22.696Z,34.17
2022-08-19T11:17:54.278Z,34.00
2022-08-19T11:20:25.238Z,34.70
2022-08-19T11:22:53.626Z,35.13
2022-08-19T11:25:22.108Z,34.60
2022-08-19T11:27:51.348Z,35.07
2022-08-19T11:30:19.659Z,34.87
2022-08-19T11:32:49.508Z,34.49
2022-08-19T11:35:22.167Z,34.99
2022-08-19T11:37:49.650Z,34.84
2022-08-19T11:40:18.229Z,34.55
2022-08-19T11:42:55.822Z,35.14
2022-08-19T11:45:24.384Z,34.60
2022-08-19T11:47:52.905Z,34.67
2022-08-19T11:50:23.607Z,34.56
2022-08-19T11:52:55.302Z,34.22
2022-08-19T11:55:23.931Z,34.64
2022-08-19T11:57:52.251Z,34.47
2022-08-19T12:00:20.927Z,33.65
2022-08-19T12:02:49.076Z,33.42
2022-08-19T12:05:17.843Z,34.11
2022-08-19T12:07:46.192Z,34.30
2022-08-19T12:10:14.695Z,34.17
2022-08-19T12:12:47.492Z,34.28
2022-08-19T12:15:28.791Z,33.91
2022-08-19T12:18:07.777Z,33.84
2022-08-19T12:20:37.567Z,33.95
2022-08-19T12:23:06.936Z,34.41
2022-08-19T12:25:35.083Z,33.91
2022-08-19T12:28:04.578Z,33.57
2022-08-19T12:30:33.299Z,33.81
2022-08-19T12:33:01.394Z,33.79
2022-08-19T12:35:30.793Z,34.22
2022-08-19T12:38:00.194Z,34.44
2022-08-19T12:40:29.492Z,34.00
2022-08-19T12:42:58.004Z,34.25
2022-08-19T12:45:26.344Z,34.05
2022-08-19T12:47:56.961Z,33.87
2022-08-19T12:50:25.767Z,33.79
2022-08-19T12:52:54.193Z,34.44
2022-08-19T12:55:22.418Z,34.53
2022-08-19T12:57:50.969Z,34.49
2022-08-19T13:00:21.641Z,34.93
2022-08-19T13:02:52.455Z,35.00
2022-08-19T13:05:25.102Z,35.12
2022-08-19T13:07:56.463Z,34.58
2022-08-19T13:10:28.036Z,33.69
2022-08-19T13:12:57.349Z,33.79
2022-08-19T13:15:25.534Z,34.05
2022-08-19T13:17:55.972Z,34.06
2022-08-19T13:20:24.751Z,33.83
2022-08-19T13:22:53.116Z,34.91
2022-08-19T13:25:21.927Z,35.46
2022-08-19T13:27:51.253Z,34.95
2022-08-19T13:30:44.400Z,35.62
2022-08-19T13:33:15.564Z,35.48
2022-08-19T13:35:47.973Z,36.70
2022-08-19T13:38:18.324Z,36.32
2022-08-19T13:40:46.945Z,35.37
2022-08-19T13:43:22.374Z,35.24
2022-08-19T13:45:55.590Z,34.99
2022-08-19T13:48:26.511Z,34.46
2022-08-19T13:50:55.043Z,34.22
2022-08-19T13:53:24.892Z,34.54
2022-08-19T13:55:53.910Z,34.91
2022-08-19T13:58:23.933Z,34.72
2022-08-19T14:00:52.234Z,34.94
2022-08-19T14:03:20.484Z,35.19
2022-08-19T14:05:48.730Z,35.26
2022-08-19T14:08:19.102Z,34.86
2022-08-19T14:10:48.626Z,34.89
2022-08-19T14:13:20.498Z,35.41
2022-08-19T14:15:49.158Z,35.34
2022-08-19T14:18:18.465Z,34.56
2022-08-19T14:20:46.700Z,34.50
2022-08-19T14:23:14.965Z,34.42
2022-08-19T14:25:44.687Z,34.47
2022-08-19T14:28:12.838Z,34.54
2022-08-19T14:30:40.983Z,34.81
2022-08-19T14:33:09.319Z,35.20
2022-08-19T14:35:38.106Z,35.11
2022-08-19T14:38:07.503Z,34.83
2022-08-19T14:40:35.886Z,34.23
2022-08-19T14:43:05.430Z,34.90
2022-08-19T14:45:36.842Z,35.50
2022-08-19T14:48:05.415Z,34.81
2022-08-19T14:50:34.763Z,34.94
2022-08-19T14:53:08.156Z,35.67
2022-08-19T14:55:43.581Z,35.96
2022-08-19T14:58:28.833Z,36.56
2022-08-19T15:01:00.020Z,35.69
2022-08-19T15:03:28.430Z,35.53
2022-08-19T15:05:57.650Z,35.54
2022-08-19T15:08:27.114Z,36.25
2022-08-19T15:10:56.349Z,36.90
2022-08-19T15:13:24.864Z,36.35
2022-08-19T15:15:53.291Z,36.53
2022-08-19T15:18:22.219Z,36.97
2022-08-19T15:20:50.613Z,36.29
2022-08-19T15:23:21.439Z,36.47
2022-08-19T15:25:53.704Z,36.53
2022-08-19T15:28:22.213Z,36.99
2022-08-19T15:30:50.664Z,37.15
2022-08-19T15:33:20.526Z,37.18
2022-08-19T15:35:50.970Z,36.86
2022-08-19T15:38:21.381Z,36.85
2022-08-19T15:40:50.145Z,37.29
2022-08-19T15:43:21.023Z,37.26
2022-08-19T15:45:49.598Z,37.48
2022-08-19T15:48:17.756Z,37.89
2022-08-19T15:50:45.925Z,37.69
2022-08-19T15:53:14.032Z,37.94
2022-08-19T15:55:50.464Z,38.15
2022-08-19T15:58:36.825Z,38.10
2022-08-19T16:01:27.125Z,37.83
2022-08-19T16:04:21.014Z,37.73
2022-08-19T16:06:51.650Z,37.93
2022-08-19T16:09:24.895Z,38.03
2022-08-19T16:12:01.212Z,38.48
2022-08-19T16:14:31.958Z,38.18
2022-08-19T16:17:00.215Z,38.53
2022-08-19T16:19:28.456Z,38.50
2022-08-19T16:21:57.127Z,38.83
2022-08-19T16:24:27.575Z,39.21
2022-08-19T16:26:56.456Z,39.14
2022-08-19T16:29:34.737Z,39.72
2022-08-19T16:32:10.560Z,39.88
2022-08-19T16:34:40.031Z,40.13
2022-08-19T16:37:09.332Z,40.52
2022-08-19T16:39:37.854Z,40.73
2022-08-19T16:42:08.516Z,40.85
2022-08-19T16:44:39.843Z,40.68
2022-08-19T16:47:07.997Z,41.03
2022-08-19T16:49:54.008Z,41.34
2022-08-19T16:52:26.415Z,41.30
2022-08-19T16:54:55.031Z,41.72
2022-08-19T16:57:26.250Z,41.81
2022-08-19T16:59:54.301Z,42.02
2022-08-19T17:02:22.990Z,42.09
2022-08-19T17:04:57.750Z,42.11
2022-08-19T17:07:33.653Z,42.30
2022-08-19T17:10:04.046Z,42.10
2022-08-19T17:12:32.595Z,42.25
2022-08-19T17:15:01.929Z,42.16
2022-08-19T17:17:30.959Z,42.20
2022-08-19T17:20:00.556Z,42.26
2022-08-19T17:22:29.360Z,42.83
2022-08-19T17:24:58.486Z,43.69
2022-08-19T17:27:32.194Z,44.56
2022-08-19T17:30:02.017Z,44.71
2022-08-19T17:32:34.185Z,44.78
2022-08-19T17:35:03.873Z,44.74
2022-08-19T17:37:33.496Z,44.76
2022-08-19T17:40:03.803Z,45.29
2022-08-19T17:42:32.275Z,46.04
2022-08-19T17:45:02.911Z,47.25
2022-08-19T17:47:31.141Z,47.64
2022-08-19T17:49:59.570Z,47.90
2022-08-19T17:52:28.002Z,48.10
2022-08-19T17:54:56.169Z,48.35
2022-08-19T17:57:24.442Z,48.62
2022-08-19T17:59:53.209Z,48.22
2022-08-19T18:02:22.398Z,48.40
2022-08-19T18:04:50.711Z,48.21
2022-08-19T18:07:20.806Z,48.00
2022-08-19T18:09:51.834Z,48.21
2022-08-19T18:12:25.834Z,48.57
2022-08-19T18:14:54.120Z,48.85
2022-08-19T18:17:22.624Z,49.40
2022-08-19T18:19:50.888Z,49.76
2022-08-19T18:22:26.101Z,50.58
2022-08-19T18:24:55.032Z,51.22
2022-08-19T18:27:23.268Z,50.71
2022-08-19T18:29:51.635Z,51.12
2022-08-19T18:32:23.919Z,51.12
2022-08-19T18:34:55.466Z,52.03
2022-08-19T18:37:25.588Z,52.22
2022-08-19T18:40:11.867Z,52.41
2022-08-19T18:43:01.883Z,52.64
2022-08-19T18:45:48.736Z,53.20
2022-08-19T18:48:34.983Z,53.55
2022-08-19T18:51:04.169Z,53.76
2022-08-19T18:53:34.458Z,54.28
2022-08-19T18:56:02.976Z,54.70
2022-08-19T18:58:33.489Z,55.57
2022-08-19T19:01:10.486Z,56.98
2022-08-19T19:03:44.584Z,58.07
2022-08-19T19:06:14.808Z,58.93
2022-08-19T19:08:44.789Z,59.84
2022-08-19T19:11:16.871Z,60.69
2022-08-19T19:13:46.339Z,61.21
2022-08-19T19:16:14.902Z,61.60
2022-08-19T19:18:43.942Z,62.19
2022-08-19T19:21:12.842Z,62.47
2022-08-19T19:23:41.724Z,62.70
2022-08-19T19:26:11.859Z,62.99
2022-08-19T19:28:44.874Z,63.31
2022-08-19T19:31:15.666Z,63.68
2022-08-19T19:33:44.859Z,64.16
2022-08-19T19:36:13.315Z,64.39
2022-08-19T19:38:48.260Z,64.81
2022-08-19T19:41:23.821Z,65.10
2022-08-19T19:44:23.086Z,65.09
2022-08-19T19:46:44.713Z,65.79
2022-08-19T19:49:13.559Z,66.37
2022-08-19T19:51:42.029Z,67.06
2022-08-19T19:54:23.044Z,67.31
2022-08-19T19:56:54.956Z,67.48
2022-08-19T19:59:23.374Z,67.90
2022-08-19T20:01:54.554Z,68.34
2022-08-19T20:04:23.056Z,68.57
2022-08-19T20:06:51.385Z,68.61
2022-08-19T20:09:20.093Z,69.00
2022-08-19T20:11:54.563Z,69.05
2022-08-19T20:14:25.426Z,69.20
2022-08-19T20:16:55.809Z,69.59
2022-08-19T20:19:32.105Z,69.62
2022-08-19T20:22:01.482Z,69.49
2022-08-19T20:24:34.582Z,69.45
2022-08-19T20:27:05.450Z,69.56
2022-08-19T20:29:38.027Z,69.68
2022-08-19T20:32:08.258Z,69.55
2022-08-19T20:34:36.682Z,69.66
2022-08-19T20:37:05.305Z,69.54
2022-08-19T20:39:33.553Z,69.57
2022-08-19T20:42:01.798Z,69.79
2022-08-19T20:44:29.952Z,70.16
2022-08-19T20:47:02.925Z,70.12
2022-08-19T20:49:32.446Z,70.32
2022-08-19T20:52:01.032Z,70.54
2022-08-19T20:54:29.243Z,70.79
2022-08-19T20:56:57.702Z,70.97
2022-08-19T20:59:26.373Z,70.97
2022-08-19T21:01:54.875Z,70.89
2022-08-19T21:04:22.970Z,70.86
2022-08-19T21:06:52.447Z,70.76
2022-08-19T21:09:20.950Z,70.57
2022-08-19T21:11:49.267Z,70.47
2022-08-19T21:14:21.045Z,70.30
2022-08-19T21:16:49.788Z,70.35
2022-08-19T21:19:22.041Z,70.19
2022-08-19T21:21:52.354Z,70.08
2022-08-19T21:24:21.019Z,70.47
2022-08-19T21:26:51.471Z,70.54
2022-08-19T21:29:20.095Z,70.39
2022-08-19T21:31:49.224Z,70.69
2022-08-19T21:34:17.975Z,70.50
2022-08-19T21:36:46.445Z,70.74
2022-08-19T21:39:14.689Z,70.61
2022-08-19T21:41:43.728Z,70.63
2022-08-19T21:44:12.258Z,70.71
2022-08-19T21:46:40.583Z,70.87
2022-08-19T21:49:08.788Z,71.06
2022-08-19T21:51:37.677Z,71.12
2022-08-19T21:54:05.983Z,71.33
2022-08-19T21:56:34.391Z,71.51
2022-08-19T21:59:02.568Z,71.58
2022-08-19T22:01:31.167Z,71.82
2022-08-19T22:03:59.452Z,71.66
2022-08-19T22:06:27.789Z,72.00
2022-08-19T22:08:56.573Z,72.08
2022-08-19T22:11:26.040Z,72.33
2022-08-19T22:13:56.036Z,72.51
2022-08-19T22:16:25.870Z,72.73
2022-08-19T22:18:54.027Z,72.70
2022-08-19T22:21:40.529Z,72.73
2022-08-19T22:24:10.029Z,72.72
2022-08-19T22:26:39.545Z,72.74
2022-08-19T22:29:07.773Z,73.23
2022-08-19T22:31:37.161Z,73.09
2022-08-19T22:34:06.136Z,73.38
2022-08-19T22:36:35.179Z,73.80
2022-08-19T22:39:04.708Z,74.09
2022-08-19T22:41:33.664Z,74.22
2022-08-19T22:44:03.389Z,74.13
2022-08-19T22:46:33.554Z,74.30
2022-08-19T22:49:02.179Z,74.39
2022-08-19T22:51:49.094Z,74.42
2022-08-19T22:54:17.599Z,74.27
2022-08-19T22:56:46.885Z,74.09
2022-08-19T22:59:15.080Z,74.05
2022-08-19T23:01:43.566Z,74.27
2022-08-19T23:04:13.547Z,74.25
2022-08-19T23:06:42.483Z,74.52
2022-08-19T23:09:11.200Z,74.45
2022-08-19T23:11:46.565Z,74.53
2022-08-19T23:14:16.903Z,75.04
2022-08-19T23:16:51.253Z,74.83
2022-08-19T23:19:21.205Z,74.64
2022-08-19T23:21:52.293Z,74.63
2022-08-19T23:24:20.889Z,75.10
2022-08-19T23:27:07.483Z,75.45
2022-08-19T23:29:54.465Z,75.85
2022-08-19T23:32:24.820Z,76.19
2022-08-19T23:34:55.464Z,76.82
2022-08-19T23:37:25.808Z,76.99
2022-08-19T23:39:53.930Z,77.56
2022-08-19T23:42:25.322Z,77.65
2022-08-19T23:44:53.400Z,77.52
2022-08-19T23:47:22.647Z,77.60
2022-08-19T23:49:50.853Z,77.57
2022-08-19T23:52:19.837Z,77.71
2022-08-19T23:54:48.001Z,78.06
2022-08-19T23:57:16.183Z,78.12
2022-08-19T23:59:44.894Z,77.88
